Time;durP1;ratioP1;P1;durP2;ratioP2;P2;SDS_P1;SDS_P2;PMS_P1;PMS_P2;Temp;Humidity;BMP_temperature;BMP_pressure;BME280_temperature;BME280_humidity;BME280_pressure;Samples;Min_cycle;Max_cycle;Signal;HPM_P1;HPM_P2
2023/10/12 00:01:59;;;;;;;1.63;0.57;;;14.20;99.90;;;;;;5059983;28;20037;-74
2023/10/12 00:07:15;;;;;;;1.65;0.35;;;14.20;99.90;;;;;;5061766;28;20096;-74
2023/10/12 00:09:48;;;;;;;1.98;0.70;;;14.20;99.90;;;;;;5045918;28;20604;-74
2023/10/12 00:12:23;;;;;;;2.85;0.60;;;14.20;99.90;;;;;;5058597;28;20048;-74
2023/10/12 00:14:54;;;;;;;3.22;0.65;;;14.20;99.90;;;;;;5064128;28;20048;-74
2023/10/12 00:17:19;;;;;;;3.25;0.63;;;14.10;99.90;;;;;;5056336;28;20064;-74
2023/10/12 00:19:45;;;;;;;3.63;0.50;;;14.10;99.90;;;;;;5046629;28;20032;-74
2023/10/12 00:22:11;;;;;;;1.17;0.30;;;14.10;99.90;;;;;;5058391;28;20036;-74
2023/10/12 00:24:38;;;;;;;1.05;0.40;;;14.20;99.90;;;;;;5060392;28;20166;-74
2023/10/12 00:27:15;;;;;;;1.48;0.47;;;14.10;99.90;;;;;;5062018;28;20042;-74
2023/10/12 00:29:47;;;;;;;3.15;0.43;;;14.10;99.90;;;;;;5044619;28;20044;-74
2023/10/12 00:32:13;;;;;;;2.78;0.50;;;14.10;99.90;;;;;;5044753;28;20036;-75
2023/10/12 00:34:45;;;;;;;3.30;0.52;;;14.20;99.90;;;;;;5058700;28;20041;-74
2023/10/12 00:37:14;;;;;;;4.85;0.50;;;14.10;99.90;;;;;;5047545;28;20032;-74
2023/10/12 00:42:18;;;;;;;4.82;0.80;;;14.10;99.90;;;;;;5060987;28;20044;-74
2023/10/12 00:44:47;;;;;;;1.17;0.30;;;14.20;99.90;;;;;;5061080;28;20044;-74
2023/10/12 00:47:28;;;;;;;2.47;0.40;;;14.10;99.90;;;;;;5040600;28;20041;-74
2023/10/12 00:49:55;;;;;;;2.78;0.68;;;14.10;99.90;;;;;;5044273;28;20040;-75
2023/10/12 00:52:26;;;;;;;3.83;0.40;;;14.10;99.90;;;;;;5065742;28;20044;-75
2023/10/12 00:54:58;;;;;;;1.60;0.60;;;14.00;99.90;;;;;;5058874;28;20045;-75
2023/10/12 00:57:24;;;;;;;1.95;0.55;;;14.10;99.90;;;;;;5058643;28;20086;-74
2023/10/12 00:59:52;;;;;;;2.22;0.50;;;14.00;99.90;;;;;;5047148;28;20044;-74
2023/10/12 01:02:23;;;;;;;1.58;0.40;;;14.00;99.90;;;;;;5045079;28;20036;-74
2023/10/12 01:04:49;;;;;;;2.80;0.45;;;14.10;99.90;;;;;;5044558;28;20036;-74
2023/10/12 01:07:25;;;;;;;1.20;0.40;;;14.10;99.90;;;;;;5042788;28;20041;-74
2023/10/12 01:09:56;;;;;;;1.27;0.63;;;14.10;99.90;;;;;;5045590;28;20058;-74
2023/10/12 01:12:30;;;;;;;0.88;0.25;;;14.10;99.90;;;;;;5094514;28;20043;-74
2023/10/12 01:14:55;;;;;;;2.45;0.60;;;14.10;99.90;;;;;;5062902;28;20042;-74
2023/10/12 01:17:25;;;;;;;2.90;0.60;;;14.10;99.90;;;;;;5045617;28;20041;-74
2023/10/12 01:19:51;;;;;;;2.42;0.50;;;14.10;99.90;;;;;;5062049;28;20051;-74
2023/10/12 01:22:25;;;;;;;2.72;0.50;;;14.10;99.90;;;;;;5046669;28;20078;-74
2023/10/12 01:27:21;;;;;;;1.88;0.57;;;14.10;99.90;;;;;;5061170;28;20123;-74
2023/10/12 01:29:47;;;;;;;3.90;0.57;;;14.10;99.90;;;;;;5048203;28;20667;-74
2023/10/12 01:34:44;;;;;;;1.10;0.20;;;14.10;99.90;;;;;;5058925;28;20166;-74
2023/10/12 01:37:22;;;;;;;3.63;0.47;;;14.10;99.90;;;;;;5062160;28;20033;-74
2023/10/12 01:40:09;;;;;;;2.90;0.30;;;14.00;99.90;;;;;;5095961;28;20123;-74
2023/10/12 01:47:57;;;;;;;4.13;0.65;;;13.90;99.90;;;;;;5066928;28;20192;-74
2023/10/12 01:50:27;;;;;;;1.38;0.57;;;13.90;99.90;;;;;;5096865;28;20386;-74
2023/10/12 01:52:56;;;;;;;1.42;0.30;;;13.90;99.90;;;;;;5083792;28;20066;-74
2023/10/12 01:55:29;;;;;;;2.03;0.47;;;14.00;99.90;;;;;;5058408;28;20036;-74
2023/10/12 01:57:55;;;;;;;1.73;0.40;;;13.90;99.90;;;;;;5084108;28;20572;-74
2023/10/12 02:00:26;;;;;;;1.23;0.20;;;13.90;99.90;;;;;;5054746;28;20043;-74
2023/10/12 02:05:37;;;;;;;2.67;0.40;;;13.90;99.90;;;;;;5061563;28;20075;-74
2023/10/12 02:08:05;;;;;;;0.85;0.40;;;13.80;99.90;;;;;;5064667;28;20044;-74
2023/10/12 02:10:41;;;;;;;0.80;0.30;;;13.80;99.90;;;;;;5062679;28;20047;-74
2023/10/12 02:13:07;;;;;;;3.05;0.50;;;13.90;99.90;;;;;;5064063;28;20036;-74
2023/10/12 02:15:32;;;;;;;4.40;1.33;;;13.90;99.90;;;;;;5047515;28;20495;-74
2023/10/12 02:17:59;;;;;;;2.13;0.50;;;13.90;99.90;;;;;;5065363;28;20132;-74
2023/10/12 02:20:32;;;;;;;1.02;0.50;;;14.00;99.90;;;;;;5061321;28;20037;-74
2023/10/12 02:23:01;;;;;;;0.70;0.30;;;14.00;99.90;;;;;;5063408;28;20068;-74
2023/10/12 02:25:28;;;;;;;3.85;0.47;;;13.90;99.90;;;;;;5063074;28;20070;-74
2023/10/12 02:27:58;;;;;;;1.20;0.65;;;13.90;99.90;;;;;;5047325;28;20470;-75
2023/10/12 02:30:30;;;;;;;4.30;0.63;;;13.90;99.90;;;;;;5064781;28;20569;-74
2023/10/12 02:33:07;;;;;;;4.15;0.98;;;13.80;99.90;;;;;;5048668;28;20029;-75
2023/10/12 02:35:44;;;;;;;3.03;0.77;;;13.80;99.90;;;;;;5063225;28;20074;-74
2023/10/12 02:38:14;;;;;;;2.53;0.70;;;13.80;99.90;;;;;;5064570;28;20040;-74
2023/10/12 02:40:41;;;;;;;3.28;0.60;;;13.80;99.90;;;;;;5045547;28;20048;-74
2023/10/12 02:43:10;;;;;;;3.38;0.70;;;13.80;99.90;;;;;;5064046;28;20520;-74
2023/10/12 02:45:41;;;;;;;2.10;0.50;;;13.80;99.90;;;;;;5095578;28;20074;-74
2023/10/12 02:48:12;;;;;;;2.15;0.60;;;13.80;99.90;;;;;;5064624;28;20083;-74
2023/10/12 02:50:57;;;;;;;2.40;0.50;;;13.80;99.90;;;;;;5046716;28;20040;-74
2023/10/12 02:53:28;;;;;;;2.57;0.50;;;13.80;99.90;;;;;;5046029;28;20047;-74
2023/10/12 02:55:58;;;;;;;1.15;0.50;;;13.80;99.90;;;;;;5095397;28;20032;-74
2023/10/12 02:58:24;;;;;;;7.63;0.80;;;13.80;99.90;;;;;;5065043;28;20036;-74
2023/10/12 03:00:56;;;;;;;1.38;0.60;;;13.80;99.90;;;;;;5061840;28;20111;-74
2023/10/12 03:03:27;;;;;;;4.40;0.60;;;13.80;99.90;;;;;;5063310;28;20036;-74
2023/10/12 03:06:07;;;;;;;1.80;0.60;;;13.80;99.90;;;;;;5062515;28;20029;-74
2023/10/12 03:08:48;;;;;;;2.70;0.70;;;13.80;99.90;;;;;;5095524;27;20051;-74
2023/10/12 03:11:19;;;;;;;1.70;0.60;;;13.80;99.90;;;;;;5046307;28;20036;-74
2023/10/12 03:14:00;;;;;;;1.63;0.60;;;13.80;99.90;;;;;;5046756;28;20037;-74
2023/10/12 03:16:32;;;;;;;1.60;0.70;;;13.80;99.90;;;;;;5059459;28;20048;-74
2023/10/12 03:19:00;;;;;;;2.38;0.60;;;13.70;99.90;;;;;;5061936;28;20040;-74
2023/10/12 03:21:33;;;;;;;2.13;0.70;;;13.70;99.90;;;;;;5062921;28;20037;-74
2023/10/12 03:24:02;;;;;;;1.90;0.40;;;13.70;99.90;;;;;;5062350;28;20081;-74
2023/10/12 03:26:29;;;;;;;3.72;0.57;;;13.70;99.90;;;;;;5059671;28;20521;-74
2023/10/12 03:29:18;;;;;;;1.27;0.57;;;13.70;99.90;;;;;;5059865;28;20035;-74
2023/10/12 03:36:58;;;;;;;3.05;0.98;;;13.70;99.90;;;;;;5061838;28;20036;-74
2023/10/12 03:44:33;;;;;;;1.42;0.55;;;13.70;99.90;;;;;;5061582;28;20433;-74
2023/10/12 03:47:46;;;;;;;3.50;0.85;;;13.60;99.90;;;;;;5043807;28;20098;-74
2023/10/12 03:52:27;;;;;;;4.32;0.52;;;13.70;99.90;;;;;;5061717;28;20137;-74
2023/10/12 04:14:17;;;;;;;2.58;0.75;;;13.60;99.90;;;;;;5060135;28;20053;-74
2023/10/12 04:21:23;;;;;;;3.05;0.82;;;13.60;99.90;;;;;;5061496;28;20052;-74
2023/10/12 04:24:27;;;;;;;4.05;1.05;;;13.60;99.90;;;;;;5043383;28;20082;-74
2023/10/12 04:29:08;;;;;;;1.55;0.57;;;13.60;99.90;;;;;;5070208;28;20511;-74
2023/10/12 04:31:34;;;;;;;4.55;0.77;;;13.70;99.90;;;;;;5092700;28;20047;-74
2023/10/12 04:36:43;;;;;;;2.10;0.68;;;13.60;99.90;;;;;;5056891;28;20516;-74
2023/10/12 04:39:27;;;;;;;2.75;0.60;;;13.60;99.90;;;;;;5058280;28;20051;-74
2023/10/12 04:47:09;;;;;;;3.60;0.80;;;13.70;99.90;;;;;;5057603;28;20087;-74
2023/10/12 04:54:59;;;;;;;2.20;0.60;;;13.60;99.90;;;;;;5061065;28;20040;-74
2023/10/12 04:57:34;;;;;;;2.88;0.77;;;13.60;99.90;;;;;;5061747;28;20036;-74
2023/10/12 05:00:17;;;;;;;4.15;0.93;;;13.60;99.90;;;;;;5043900;28;20062;-74
2023/10/12 05:07:57;;;;;;;4.40;0.80;;;13.60;99.90;;;;;;5062299;28;20039;-74
2023/10/12 05:10:28;;;;;;;4.82;0.80;;;13.60;99.90;;;;;;5039406;28;20713;-74
2023/10/12 05:13:06;;;;;;;1.08;0.40;;;13.60;99.90;;;;;;5046230;28;20078;-74
2023/10/12 05:15:41;;;;;;;5.40;0.60;;;13.60;99.90;;;;;;5057984;28;20061;-74
2023/10/12 05:18:08;;;;;;;1.45;0.40;;;13.60;99.90;;;;;;5057619;28;20074;-74
2023/10/12 05:20:34;;;;;;;3.05;0.70;;;13.60;99.90;;;;;;5072807;28;20041;-74
2023/10/12 05:23:02;;;;;;;3.97;0.70;;;13.70;99.90;;;;;;5060317;28;20078;-74
2023/10/12 05:25:33;;;;;;;1.33;0.60;;;13.60;99.90;;;;;;5042123;28;20040;-74
2023/10/12 05:28:13;;;;;;;1.65;0.70;;;13.60;99.90;;;;;;5093851;28;20505;-74
2023/10/12 05:30:38;;;;;;;8.02;0.80;;;13.60;99.90;;;;;;5043763;28;20040;-74
2023/10/12 05:33:05;;;;;;;1.95;0.65;;;13.60;99.90;;;;;;5045273;28;20393;-74
2023/10/12 05:35:52;;;;;;;3.35;0.80;;;13.60;99.90;;;;;;5060216;28;20047;-74
2023/10/12 05:38:18;;;;;;;5.10;0.73;;;13.60;99.90;;;;;;5057298;28;20734;-74
2023/10/12 05:40:53;;;;;;;8.35;0.88;;;13.60;99.90;;;;;;5063169;28;20059;-74
2023/10/12 05:43:22;;;;;;;4.70;0.82;;;13.50;99.90;;;;;;5051030;28;20568;-74
2023/10/12 05:45:47;;;;;;;2.22;0.90;;;13.50;99.90;;;;;;5062534;28;20047;-74
2023/10/12 05:48:15;;;;;;;3.33;0.73;;;13.50;99.90;;;;;;5060818;28;20839;-74
2023/10/12 05:50:49;;;;;;;1.77;0.70;;;13.50;99.90;;;;;;5060017;28;20086;-74
2023/10/12 05:53:16;;;;;;;3.85;0.68;;;13.50;99.90;;;;;;5058681;28;20066;-74
2023/10/12 05:55:43;;;;;;;1.73;0.68;;;13.40;99.90;;;;;;5053016;28;20033;-74
2023/10/12 05:58:11;;;;;;;2.78;0.70;;;13.50;99.90;;;;;;5067247;28;20563;-74
2023/10/12 06:00:46;;;;;;;3.90;0.88;;;13.50;99.90;;;;;;5066911;28;20040;-74
2023/10/12 06:03:15;;;;;;;5.00;1.15;;;13.50;99.90;;;;;;5082763;28;20082;-74
2023/10/12 06:05:44;;;;;;;3.83;0.80;;;13.50;99.90;;;;;;5095985;28;20041;-74
2023/10/12 06:08:12;;;;;;;1.88;0.60;;;13.50;99.90;;;;;;5049546;28;20090;-74
2023/10/12 06:10:43;;;;;;;2.30;0.70;;;13.40;99.90;;;;;;5052084;28;20051;-74
2023/10/12 06:13:09;;;;;;;3.65;0.60;;;13.40;99.90;;;;;;5059739;28;20039;-74
2023/10/12 06:15:40;;;;;;;6.00;0.88;;;13.40;99.90;;;;;;5044321;28;20147;-73
2023/10/12 06:18:10;;;;;;;0.88;0.47;;;13.40;99.90;;;;;;5061627;28;20040;-75
2023/10/12 06:20:40;;;;;;;1.83;0.60;;;13.40;99.90;;;;;;5061687;28;20045;-74
2023/10/12 06:23:08;;;;;;;1.58;0.47;;;13.40;99.90;;;;;;5079802;28;20120;-74
2023/10/12 06:25:38;;;;;;;1.38;0.80;;;13.40;99.90;;;;;;5064169;28;20032;-74
2023/10/12 06:28:14;;;;;;;4.63;0.60;;;13.30;99.90;;;;;;5072014;28;20047;-73
2023/10/12 06:30:41;;;;;;;1.15;0.70;;;13.30;99.90;;;;;;5058203;28;20305;-74
2023/10/12 06:33:12;;;;;;;4.80;0.80;;;13.30;99.90;;;;;;5091594;27;20036;-74
2023/10/12 06:35:51;;;;;;;1.58;0.57;;;13.30;99.90;;;;;;5063145;28;20063;-74
2023/10/12 06:38:22;;;;;;;1.92;0.77;;;13.30;99.90;;;;;;5056971;28;20492;-75
2023/10/12 06:40:48;;;;;;;1.42;0.50;;;13.30;99.90;;;;;;5096679;28;20040;-75
2023/10/12 06:51:02;;;;;;;2.88;0.55;;;13.10;99.90;;;;;;5062580;28;20191;-75
2023/10/12 06:53:36;;;;;;;3.65;0.40;;;13.10;99.90;;;;;;5045499;28;20067;-75
2023/10/12 06:56:50;;;;;;;3.10;0.50;;;13.10;99.90;;;;;;5071927;28;20056;-74
2023/10/12 07:01:39;;;;;;;2.20;0.70;;;13.10;99.90;;;;;;5062322;28;20049;-75
2023/10/12 07:04:14;;;;;;;5.82;0.73;;;13.10;99.90;;;;;;5059717;28;20047;-75
2023/10/12 07:06:56;;;;;;;3.65;0.93;;;13.10;99.90;;;;;;5076926;28;20131;-74
2023/10/12 07:09:42;;;;;;;1.17;0.47;;;13.00;99.90;;;;;;5061110;28;20136;-74
2023/10/12 07:12:08;;;;;;;;;;;13.00;99.90;;;;;;5047392;28;20587;-74
2023/10/12 07:14:38;;;;;;;1.38;0.60;;;13.00;99.90;;;;;;5079242;28;20031;-74
2023/10/12 07:17:09;;;;;;;4.22;0.60;;;13.00;99.90;;;;;;5045239;28;20461;-75
2023/10/12 07:19:40;;;;;;;3.53;0.93;;;13.00;99.90;;;;;;5046740;28;20036;-74
2023/10/12 07:22:09;;;;;;;3.65;1.30;;;13.00;99.90;;;;;;5056110;28;20047;-73
2023/10/12 07:24:38;;;;;;;2.75;0.63;;;13.00;99.90;;;;;;5094348;28;20115;-74
2023/10/12 07:27:11;;;;;;;2.10;0.93;;;13.10;99.90;;;;;;5047444;28;20170;-75
2023/10/12 07:29:39;;;;;;;6.65;1.08;;;13.10;99.90;;;;;;5056233;28;20495;-75
2023/10/12 07:32:19;;;;;;;2.15;0.80;;;13.10;99.90;;;;;;5042821;28;20553;-75
2023/10/12 07:34:52;;;;;;;4.53;0.77;;;13.20;99.90;;;;;;5058391;28;20048;-74
2023/10/12 07:37:18;;;;;;;9.10;1.00;;;13.20;99.90;;;;;;5047856;28;20106;-75
2023/10/12 07:39:44;;;;;;;1.83;0.45;;;13.20;99.90;;;;;;5055169;28;20124;-74
2023/10/12 07:42:13;;;;;;;4.85;0.90;;;13.30;99.90;;;;;;5098947;28;20142;-74
2023/10/12 07:44:43;;;;;;;1.27;0.60;;;13.30;99.90;;;;;;5065180;28;20036;-74
2023/10/12 07:47:18;;;;;;;2.20;0.60;;;13.30;99.90;;;;;;5068094;28;20555;-74
2023/10/12 07:49:57;;;;;;;3.65;0.60;;;13.40;99.90;;;;;;5066438;28;20044;-74
2023/10/12 07:52:38;;;;;;;3.30;0.88;;;13.50;99.90;;;;;;5068298;28;20055;-74
2023/10/12 07:55:07;;;;;;;2.35;1.00;;;13.50;99.90;;;;;;5061110;28;20494;-74
2023/10/12 07:57:36;;;;;;;3.70;0.60;;;13.60;99.90;;;;;;5048259;28;20162;-74
2023/10/12 08:05:42;;;;;;;3.35;0.68;;;13.80;99.90;;;;;;5087940;28;20206;-74
2023/10/12 08:21:32;;;;;;;2.17;0.70;;;13.90;99.90;;;;;;5061405;28;20041;-74
2023/10/12 08:24:22;;;;;;;5.07;0.80;;;13.90;99.90;;;;;;5063118;28;20040;-74
2023/10/12 08:26:48;;;;;;;6.18;0.75;;;13.90;99.90;;;;;;5065393;28;20562;-74
2023/10/12 08:31:44;;;;;;;3.33;0.80;;;13.90;99.90;;;;;;5060515;28;20040;-74
2023/10/12 08:34:41;;;;;;;2.13;0.50;;;14.00;99.90;;;;;;5060879;28;20075;-74
2023/10/12 08:39:39;;;;;;;6.20;0.60;;;14.00;99.90;;;;;;5089431;28;20052;-74
2023/10/12 08:44:54;;;;;;;4.53;0.40;;;14.00;99.90;;;;;;5066250;28;20044;-74
2023/10/12 08:47:25;;;;;;;1.85;0.63;;;14.00;99.90;;;;;;5083479;28;20040;-74
2023/10/12 08:50:01;;;;;;;4.07;0.40;;;14.00;99.90;;;;;;5047159;28;20090;-74
2023/10/12 08:52:32;;;;;;;3.92;0.68;;;14.10;99.90;;;;;;5045719;28;20505;-74
2023/10/12 08:57:55;;;;;;;2.42;0.35;;;14.10;99.90;;;;;;5065708;28;20448;-74
2023/10/12 09:01:22;;;;;;;1.92;0.45;;;14.00;99.90;;;;;;5058105;28;20036;-74
2023/10/12 09:03:24;;;;;;;1.80;0.40;;;14.10;99.90;;;;;;5053164;28;20123;-74
2023/10/12 09:05:54;;;;;;;;;;;14.10;99.90;;;;;;5067045;28;20399;-74
2023/10/12 09:10:54;;;;;;;5.68;0.93;;;14.10;99.90;;;;;;5062050;28;20568;-74
2023/10/12 09:13:22;;;;;;;6.03;0.70;;;14.10;99.90;;;;;;5073880;28;20494;-75
2023/10/12 09:15:54;;;;;;;1.40;0.50;;;14.10;99.90;;;;;;5066115;28;20516;-74
2023/10/12 09:18:24;;;;;;;4.68;0.52;;;14.10;99.90;;;;;;5042762;28;20029;-75
2023/10/12 09:21:16;;;;;;;1.45;0.30;;;14.10;99.90;;;;;;5064375;28;20040;-74
2023/10/12 09:28:53;;;;;;;3.08;0.50;;;14.20;99.90;;;;;;5066436;28;20501;-74
2023/10/12 09:32:13;;;;;;;3.65;0.50;;;14.20;99.90;;;;;;5072968;28;20398;-74
2023/10/12 09:36:44;;;;;;;3.92;0.88;;;14.30;99.90;;;;;;5059137;28;20048;-74
2023/10/12 09:39:24;;;;;;;4.28;0.50;;;14.30;99.90;;;;;;5054776;28;20067;-74
2023/10/12 09:41:59;;;;;;;2.90;0.70;;;14.30;99.90;;;;;;5075710;28;20040;-75
2023/10/12 09:44:27;;;;;;;1.88;0.60;;;14.40;99.90;;;;;;5045850;28;20040;-75
2023/10/12 09:46:57;;;;;;;3.58;0.70;;;14.40;99.90;;;;;;5058563;28;20040;-75
2023/10/12 09:49:29;;;;;;;6.90;0.80;;;14.40;99.90;;;;;;5046289;28;20557;-74
2023/10/12 09:52:04;;;;;;;1.58;0.30;;;14.40;99.90;;;;;;5058381;28;20040;-74
2023/10/12 09:54:46;;;;;;;2.42;0.50;;;14.40;99.90;;;;;;5042228;28;20391;-74
2023/10/12 09:57:26;;;;;;;2.30;0.35;;;14.50;99.90;;;;;;5056812;28;20028;-74
2023/10/12 10:00:17;;;;;;;0.70;0.35;;;14.50;99.90;;;;;;5048696;28;20550;-75
2023/10/12 10:02:44;;;;;;;2.08;0.55;;;14.50;99.90;;;;;;5097177;28;20037;-75
2023/10/12 10:05:27;;;;;;;5.70;0.73;;;14.60;99.90;;;;;;5045324;28;20032;-74
2023/10/12 10:08:03;;;;;;;2.83;0.60;;;14.60;99.90;;;;;;5059029;28;20063;-76
2023/10/12 10:10:36;;;;;;;2.92;0.50;;;14.60;99.90;;;;;;5041974;28;20041;-75
2023/10/12 10:13:12;;;;;;;4.53;0.73;;;14.60;99.90;;;;;;5061215;28;20048;-75
2023/10/12 10:15:56;;;;;;;1.05;0.30;;;14.60;99.90;;;;;;5060147;28;20037;-75
2023/10/12 10:19:13;;;;;;;2.40;0.40;;;14.60;99.90;;;;;;5061791;28;20120;-75
2023/10/12 10:22:03;;;;;;;2.47;0.40;;;14.60;99.90;;;;;;5062257;28;20079;-75
2023/10/12 10:24:57;;;;;;;3.63;0.65;;;14.70;99.90;;;;;;5094789;28;20048;-75
2023/10/12 10:27:34;;;;;;;1.15;0.47;;;14.60;99.90;;;;;;5092587;28;20513;-74
2023/10/12 10:30:26;;;;;;;5.38;0.50;;;14.70;99.90;;;;;;5045974;28;20044;-75
2023/10/12 10:33:28;;;;;;;3.30;0.50;;;14.70;99.90;;;;;;5077386;28;20078;-75
2023/10/12 10:35:56;;;;;;;3.97;0.77;;;14.70;99.90;;;;;;5058467;28;20049;-74
2023/10/12 10:38:32;;;;;;;1.35;0.43;;;14.70;99.90;;;;;;5042921;28;20067;-74
2023/10/12 10:41:05;;;;;;;2.38;0.57;;;14.70;99.90;;;;;;5051357;28;20036;-74
2023/10/12 10:43:35;;;;;;;2.20;0.52;;;14.70;99.90;;;;;;5056823;28;20102;-74
2023/10/12 10:46:05;;;;;;;1.35;0.70;;;14.70;99.90;;;;;;5072139;28;20047;-75
2023/10/12 10:48:33;;;;;;;3.47;0.57;;;14.70;99.90;;;;;;5055467;28;20886;-74
2023/10/12 10:51:02;;;;;;;4.18;0.43;;;14.60;99.90;;;;;;5040242;28;20028;-74
2023/10/12 10:53:31;;;;;;;2.08;0.40;;;14.70;99.90;;;;;;5090361;28;20529;-74
2023/10/12 10:55:57;;;;;;;5.05;0.52;;;14.70;99.90;;;;;;5061194;28;20399;-75
2023/10/12 10:58:24;;;;;;;1.73;0.57;;;14.70;99.90;;;;;;5059898;28;20033;-75
2023/10/12 11:00:56;;;;;;;3.33;0.30;;;14.60;99.90;;;;;;5058814;28;20482;-75
2023/10/12 11:03:22;;;;;;;3.15;0.47;;;14.70;99.90;;;;;;5045489;28;20123;-75
2023/10/12 11:05:48;;;;;;;7.28;0.95;;;14.70;99.90;;;;;;5058412;28;20044;-74
2023/10/12 11:08:27;;;;;;;0.95;0.32;;;14.70;99.90;;;;;;5042933;28;20040;-74
2023/10/12 11:13:38;;;;;;;2.88;0.40;;;14.80;99.90;;;;;;5058645;28;20107;-74
2023/10/12 11:16:20;;;;;;;3.65;0.38;;;14.80;99.90;;;;;;5042329;28;20445;-74
2023/10/12 11:18:48;;;;;;;4.97;0.63;;;14.80;99.90;;;;;;5043394;28;20405;-75
2023/10/12 11:21:17;;;;;;;6.25;0.75;;;14.80;99.90;;;;;;5059305;28;20050;-75
2023/10/12 11:23:45;;;;;;;1.90;0.40;;;14.80;99.90;;;;;;5061022;28;20042;-75
2023/10/12 11:26:18;;;;;;;2.85;0.40;;;14.80;99.90;;;;;;5059289;28;20040;-75
2023/10/12 11:29:00;;;;;;;2.38;0.55;;;14.80;99.90;;;;;;5059770;28;20049;-75
2023/10/12 11:31:31;;;;;;;2.47;0.60;;;14.80;99.90;;;;;;5090786;28;20505;-75
2023/10/12 11:33:59;;;;;;;6.90;1.00;;;14.80;99.90;;;;;;5059722;28;20044;-75
2023/10/12 11:36:26;;;;;;;2.67;0.47;;;14.90;99.90;;;;;;5074885;28;20087;-75
2023/10/12 11:38:59;;;;;;;7.75;0.50;;;14.80;99.90;;;;;;5075702;28;20045;-75
2023/10/12 11:41:25;;;;;;;1.48;0.20;;;14.80;99.90;;;;;;5055832;28;20048;-75
2023/10/12 11:43:57;;;;;;;2.60;0.40;;;14.80;99.90;;;;;;5056829;28;20060;-75
2023/10/12 11:46:24;;;;;;;3.25;0.60;;;14.80;99.90;;;;;;5045192;28;20123;-75
2023/10/12 11:49:10;;;;;;;1.05;0.43;;;14.80;99.90;;;;;;5061245;28;20117;-75
2023/10/12 11:51:50;;;;;;;1.85;0.40;;;14.80;99.90;;;;;;5059379;28;20036;-75
2023/10/12 11:54:19;;;;;;;4.50;0.85;;;14.80;99.90;;;;;;5088563;28;20048;-75
2023/10/12 11:56:46;;;;;;;1.95;0.45;;;14.80;99.90;;;;;;5039988;28;20028;-75
2023/10/12 11:59:19;;;;;;;1.73;0.40;;;14.90;99.90;;;;;;5060969;28;20055;-75
2023/10/12 12:01:45;;;;;;;2.83;0.40;;;14.90;99.90;;;;;;5059106;28;20040;-75
2023/10/12 12:04:23;;;;;;;1.48;0.43;;;14.90;99.90;;;;;;5044418;28;20137;-75
2023/10/12 12:06:50;;;;;;;3.65;0.50;;;14.90;99.90;;;;;;5040148;28;20117;-75
2023/10/12 12:09:17;;;;;;;2.85;0.75;;;14.90;99.90;;;;;;5050930;28;20045;-75
2023/10/12 12:11:43;;;;;;;2.50;0.30;;;14.90;99.90;;;;;;5046984;28;20106;-75
2023/10/12 12:14:08;;;;;;;3.63;0.40;;;14.90;99.90;;;;;;5053812;28;20048;-76
2023/10/12 12:16:38;;;;;;;3.75;0.50;;;14.80;99.90;;;;;;5047957;28;20037;-75
2023/10/12 12:19:04;;;;;;;2.28;0.65;;;14.90;99.90;;;;;;5064429;28;20040;-74
2023/10/12 12:21:31;;;;;;;2.95;0.50;;;14.90;99.90;;;;;;5061190;28;20127;-74
2023/10/12 12:24:01;;;;;;;4.18;1.13;;;14.90;99.90;;;;;;5074670;28;20044;-75
2023/10/12 12:26:33;;;;;;;5.88;0.60;;;14.90;99.90;;;;;;5058634;28;20040;-74
2023/10/12 12:29:05;;;;;;;2.38;0.57;;;14.90;99.90;;;;;;5042344;28;20040;-74
2023/10/12 12:31:32;;;;;;;4.88;0.77;;;14.90;99.90;;;;;;5059267;28;20044;-74
2023/10/12 12:33:58;;;;;;;1.75;0.50;;;14.90;99.90;;;;;;5040765;28;20045;-76
2023/10/12 12:36:24;;;;;;;1.90;0.57;;;14.90;99.90;;;;;;5056946;28;20494;-75
2023/10/12 12:39:10;;;;;;;2.33;0.35;;;14.90;99.90;;;;;;5074810;28;20040;-75
2023/10/12 12:41:36;;;;;;;;;;;14.90;99.90;;;;;;5062494;28;20555;-75
2023/10/12 12:44:01;;;;;;;;;;;14.80;99.90;;;;;;5044465;28;19920;-75
2023/10/12 12:46:29;;;;;;;2.80;0.40;;;14.80;99.90;;;;;;5062006;28;19923;-75
2023/10/12 12:48:55;;;;;;;2.70;0.35;;;14.80;99.90;;;;;;5059384;28;20044;-75
2023/10/12 12:51:21;;;;;;;2.78;0.40;;;14.80;99.90;;;;;;5045342;28;20085;-75
2023/10/12 12:53:49;;;;;;;6.32;0.85;;;14.80;99.90;;;;;;5057794;28;20044;-74
2023/10/12 12:56:24;;;;;;;1.85;0.38;;;14.80;99.90;;;;;;5057372;28;20044;-74
2023/10/12 12:58:51;;;;;;;3.75;0.52;;;14.80;99.90;;;;;;5045260;28;20131;-74
2023/10/12 13:01:26;;;;;;;3.30;0.40;;;14.80;99.90;;;;;;5042573;28;20576;-78
2023/10/12 13:03:52;;;;;;;4.07;0.68;;;14.80;99.90;;;;;;5056472;28;20040;-76
2023/10/12 13:06:19;;;;;;;3.78;0.30;;;14.80;99.90;;;;;;5055935;28;20075;-75
2023/10/12 13:08:45;;;;;;;0.95;0.43;;;14.80;99.90;;;;;;5056951;28;20398;-75
2023/10/12 13:11:11;;;;;;;2.70;0.68;;;14.80;99.90;;;;;;5058320;28;20047;-75
2023/10/12 13:13:39;;;;;;;1.75;0.38;;;14.80;99.90;;;;;;5060897;28;20051;-75
2023/10/12 13:16:05;;;;;;;3.53;0.35;;;14.70;99.90;;;;;;5043774;28;20040;-75
2023/10/12 13:18:32;;;;;;;4.40;0.57;;;14.80;99.90;;;;;;5046319;28;20032;-75
2023/10/12 13:20:59;;;;;;;6.30;0.70;;;14.70;99.90;;;;;;5059653;28;20055;-75
2023/10/12 13:23:25;;;;;;;2.35;0.45;;;14.70;99.90;;;;;;5060127;28;20093;-75
2023/10/12 13:25:50;;;;;;;2.70;0.40;;;14.60;99.90;;;;;;5057092;28;20036;-75
2023/10/12 13:28:16;;;;;;;1.95;0.30;;;14.70;99.90;;;;;;5059457;28;20043;-75
2023/10/12 13:30:43;;;;;;;2.70;0.70;;;14.60;99.90;;;;;;5054242;28;20037;-75
2023/10/12 13:33:11;;;;;;;2.72;0.50;;;14.60;99.90;;;;;;5060670;28;20043;-75
2023/10/12 13:38:09;;;;;;;4.80;0.52;;;14.70;99.90;;;;;;5058572;28;20063;-75
2023/10/12 13:40:39;;;;;;;2.00;0.43;;;14.70;99.90;;;;;;5047845;28;20040;-75
2023/10/12 13:43:14;;;;;;;3.25;0.80;;;14.70;99.90;;;;;;5061337;28;20433;-75
2023/10/12 13:45:47;;;;;;;5.45;0.85;;;14.70;99.90;;;;;;5061721;28;20044;-75
2023/10/12 13:48:18;;;;;;;2.60;0.45;;;14.70;99.90;;;;;;5064665;28;20037;-75
2023/10/12 13:50:50;;;;;;;0.95;0.60;;;14.70;99.90;;;;;;5076952;28;20072;-75
2023/10/12 13:53:16;;;;;;;7.88;0.82;;;14.70;99.90;;;;;;5059032;28;20068;-75
2023/10/12 13:55:46;;;;;;;2.15;0.45;;;14.60;99.90;;;;;;5059614;28;20075;-75
2023/10/12 13:58:12;;;;;;;2.67;0.38;;;14.60;99.90;;;;;;5045913;28;20037;-74
2023/10/12 14:00:38;;;;;;;2.13;0.30;;;14.70;99.90;;;;;;5048739;28;20157;-74
2023/10/12 14:03:17;;;;;;;3.63;0.50;;;14.60;99.90;;;;;;5059364;28;20040;-77
2023/10/12 14:05:43;;;;;;;5.20;0.65;;;14.60;99.90;;;;;;5075282;28;21504;-77
2023/10/12 14:08:10;;;;;;;8.18;0.73;;;14.70;99.90;;;;;;5061894;28;20035;-76
2023/10/12 14:10:44;;;;;;;2.60;1.13;;;14.70;99.90;;;;;;5056397;28;20068;-76
2023/10/12 14:13:12;;;;;;;3.40;0.98;;;14.70;99.90;;;;;;5055548;28;20045;-77
2023/10/12 14:15:38;;;;;;;1.98;0.50;;;14.70;99.90;;;;;;5061822;28;20101;-76
2023/10/12 14:18:04;;;;;;;2.97;0.90;;;14.70;99.90;;;;;;5068331;28;20036;-77
2023/10/12 14:20:32;;;;;;;2.83;0.50;;;14.60;99.90;;;;;;5050321;28;20071;-77
2023/10/12 14:23:05;;;;;;;3.28;0.88;;;14.60;99.90;;;;;;5061601;28;20041;-77
2023/10/12 14:25:35;;;;;;;4.88;0.75;;;14.50;99.90;;;;;;5079453;28;20309;-77
2023/10/12 14:28:03;;;;;;;4.22;1.02;;;14.60;99.90;;;;;;5078032;28;20047;-76
2023/10/12 14:30:29;;;;;;;5.63;0.70;;;14.50;99.90;;;;;;5047098;28;20078;-77
2023/10/12 14:33:03;;;;;;;3.78;0.52;;;14.60;99.90;;;;;;5093916;28;20398;-77
2023/10/12 14:35:30;;;;;;;1.55;0.50;;;14.50;99.90;;;;;;5037290;28;20102;-77
2023/10/12 14:37:57;;;;;;;1.90;0.70;;;14.50;99.90;;;;;;5043903;28;20820;-79
2023/10/12 14:40:29;;;;;;;3.05;0.70;;;14.50;99.90;;;;;;5070699;28;20118;-77
2023/10/12 14:43:05;;;;;;;2.15;0.85;;;14.50;99.90;;;;;;5057306;28;20082;-78
2023/10/12 14:45:38;;;;;;;2.95;0.90;;;14.50;99.90;;;;;;5062261;28;20048;-78
2023/10/12 14:48:10;;;;;;;2.42;0.68;;;14.50;99.90;;;;;;5047193;28;20055;-78
2023/10/12 14:50:37;;;;;;;4.60;0.82;;;14.40;99.90;;;;;;5044092;28;20123;-75
2023/10/12 14:53:04;;;;;;;2.42;0.82;;;14.40;99.90;;;;;;5059263;28;20401;-75
2023/10/12 14:55:30;;;;;;;3.15;0.80;;;14.50;99.90;;;;;;5060899;28;20045;-75
2023/10/12 14:57:56;;;;;;;6.80;0.90;;;14.40;99.90;;;;;;5062911;28;20037;-75
2023/10/12 15:00:24;;;;;;;3.35;0.82;;;14.40;99.90;;;;;;5041453;28;20177;-75
2023/10/12 15:02:53;;;;;;;3.38;0.88;;;14.40;99.90;;;;;;5063580;28;20048;-75
2023/10/12 15:05:20;;;;;;;2.40;0.60;;;14.40;99.90;;;;;;5079681;28;20036;-75
2023/10/12 15:07:48;;;;;;;5.10;0.77;;;14.40;99.90;;;;;;5061898;28;20497;-75
2023/10/12 15:10:17;;;;;;;4.35;0.80;;;14.40;99.90;;;;;;5047287;28;20078;-75
2023/10/12 15:12:43;;;;;;;4.28;0.80;;;14.30;99.90;;;;;;5059925;28;20064;-75
2023/10/12 15:15:16;;;;;;;3.03;1.15;;;14.30;99.90;;;;;;5061980;28;20044;-75
2023/10/12 15:17:42;;;;;;;4.90;1.10;;;14.30;99.90;;;;;;5060032;28;20028;-75
2023/10/12 15:20:12;;;;;;;2.58;1.05;;;14.20;99.90;;;;;;5059758;28;20025;-78
2023/10/12 15:22:38;;;;;;;4.28;0.90;;;14.30;99.90;;;;;;5093518;28;20039;-75